createdAt,value
2022-08-25T00:01:26.986Z,72.52
2022-08-25T00:03:56.450Z,72.29
2022-08-25T00:06:24.884Z,72.08
2022-08-25T00:08:52.918Z,72.48
2022-08-25T00:11:25.227Z,73.25
2022-08-25T00:13:55.907Z,73.18
2022-08-25T00:16:25.658Z,73.45
2022-08-25T00:18:58.576Z,74.06
2022-08-25T00:21:27.204Z,74.50
2022-08-25T00:23:55.989Z,74.69
2022-08-25T00:26:26.246Z,74.87
2022-08-25T00:29:01.080Z,74.76
2022-08-25T00:31:38.430Z,74.44
2022-08-25T00:34:09.432Z,74.45
2022-08-25T00:36:38.656Z,73.82
2022-08-25T00:39:09.134Z,73.91
2022-08-25T00:41:39.284Z,74.34
2022-08-25T00:44:10.225Z,74.37
2022-08-25T00:46:43.466Z,74.46
2022-08-25T00:49:22.467Z,74.68
2022-08-25T00:51:56.717Z,75.07
2022-08-25T00:54:28.529Z,75.58
2022-08-25T00:56:59.585Z,75.77
2022-08-25T00:59:28.880Z,76.00
2022-08-25T01:01:59.001Z,76.93
2022-08-25T01:04:27.913Z,76.49
2022-08-25T01:06:57.724Z,76.09
2022-08-25T01:09:26.331Z,76.43
2022-08-25T01:11:54.446Z,76.45
2022-08-25T01:14:26.459Z,77.04
2022-08-25T01:16:55.198Z,77.29
2022-08-25T01:19:23.495Z,77.29
2022-08-25T01:21:54.502Z,77.56
2022-08-25T01:24:31.457Z,78.34
2022-08-25T01:26:59.870Z,78.77
2022-08-25T01:29:28.484Z,78.86
2022-08-25T01:31:58.774Z,79.78
2022-08-25T01:34:27.973Z,80.17
2022-08-25T01:36:58.396Z,79.67
2022-08-25T01:39:27.801Z,79.62
2022-08-25T01:42:10.590Z,79.10
2022-08-25T01:44:41.200Z,78.61
2022-08-25T01:47:09.801Z,78.79
2022-08-25T01:49:38.094Z,78.90
2022-08-25T01:52:13.236Z,78.75
2022-08-25T01:54:41.302Z,79.79
2022-08-25T01:57:09.476Z,79.80
2022-08-25T01:59:37.453Z,79.72
2022-08-25T02:02:06.133Z,79.13
2022-08-25T02:04:35.392Z,78.49
2022-08-25T02:07:05.407Z,78.78
2022-08-25T02:09:36.233Z,78.68
2022-08-25T02:12:05.071Z,79.33
2022-08-25T02:14:33.001Z,78.97
2022-08-25T02:17:01.096Z,79.12
2022-08-25T02:19:31.104Z,79.37
2022-08-25T02:21:59.822Z,79.62
2022-08-25T02:24:28.029Z,79.38
2022-08-25T02:26:58.131Z,80.41
2022-08-25T02:29:26.289Z,80.82
2022-08-25T02:31:54.316Z,80.93
2022-08-25T02:34:23.374Z,80.96
2022-08-25T02:36:51.750Z,80.70
2022-08-25T02:39:19.757Z,80.95
2022-08-25T02:41:47.724Z,81.68
2022-08-25T02:44:17.614Z,82.29
2022-08-25T02:46:45.653Z,83.08
2022-08-25T02:49:13.655Z,82.86
2022-08-25T02:51:42.921Z,83.20
2022-08-25T02:54:11.096Z,83.55
2022-08-25T02:56:40.155Z,83.68
2022-08-25T02:59:08.201Z,84.32
2022-08-25T03:01:37.748Z,84.95
2022-08-25T03:04:07.139Z,84.63
2022-08-25T03:06:35.306Z,83.86
2022-08-25T03:09:03.262Z,83.57
2022-08-25T03:11:31.860Z,83.34
2022-08-25T03:13:59.814Z,83.75
2022-08-25T03:16:29.408Z,84.73
2022-08-25T03:18:59.614Z,84.02
2022-08-25T03:21:29.298Z,84.26
2022-08-25T03:23:59.888Z,84.30
2022-08-25T03:26:45.811Z,84.13
2022-08-25T03:29:13.940Z,83.87
2022-08-25T03:31:43.829Z,84.96
2022-08-25T03:34:13.559Z,85.21
2022-08-25T03:36:41.929Z,85.83
2022-08-25T03:39:10.051Z,86.21
2022-08-25T03:41:38.348Z,86.33
2022-08-25T03:44:09.186Z,86.05
2022-08-25T03:46:41.313Z,85.83
2022-08-25T03:49:11.505Z,86.13
2022-08-25T03:51:47.349Z,86.99
2022-08-25T03:54:16.573Z,86.51
2022-08-25T03:56:45.449Z,86.42
2022-08-25T03:59:13.935Z,86.39
2022-08-25T04:01:44.260Z,86.64
2022-08-25T04:04:12.601Z,85.75
2022-08-25T04:06:43.299Z,84.75
2022-08-25T04:09:11.871Z,84.92
2022-08-25T04:11:40.262Z,85.38
2022-08-25T04:14:15.849Z,85.70
2022-08-25T04:16:45.864Z,85.92
2022-08-25T04:19:14.000Z,86.58
2022-08-25T04:21:43.954Z,87.10
2022-08-25T04:24:13.560Z,87.12
2022-08-25T04:26:44.085Z,87.52
2022-08-25T04:29:14.591Z,88.45
2022-08-25T04:31:47.057Z,88.17
2022-08-25T04:34:29.966Z,88.13
2022-08-25T04:37:01.940Z,87.33
2022-08-25T04:39:30.702Z,87.36
2022-08-25T04:42:00.439Z,88.19
2022-08-25T04:44:28.967Z,87.34
2022-08-25T04:46:56.972Z,87.02
2022-08-25T04:49:24.933Z,87.17
2022-08-25T04:51:52.875Z,87.04
2022-08-25T04:54:22.846Z,86.75
2022-08-25T04:56:54.067Z,85.58
2022-08-25T04:59:24.595Z,85.13
2022-08-25T05:01:58.743Z,84.85
2022-08-25T05:04:28.729Z,84.92
2022-08-25T05:06:57.231Z,84.82
2022-08-25T05:09:27.514Z,84.40
2022-08-25T05:11:56.514Z,83.92
2022-08-25T05:14:26.736Z,83.24
2022-08-25T05:16:55.220Z,81.77
2022-08-25T05:19:24.024Z,83.38
2022-08-25T05:21:52.578Z,84.61
2022-08-25T05:24:22.069Z,88.08
2022-08-25T05:26:51.523Z,88.38
2022-08-25T05:29:19.578Z,88.09
2022-08-25T05:31:50.637Z,87.70
2022-08-25T05:34:19.685Z,86.85
2022-08-25T05:36:47.974Z,85.50
2022-08-25T05:39:16.309Z,84.42
2022-08-25T05:41:44.449Z,82.87
2022-08-25T05:44:15.921Z,84.14
2022-08-25T05:46:46.280Z,84.10
2022-08-25T05:49:14.266Z,83.49
2022-08-25T05:51:42.362Z,82.51
2022-08-25T05:54:10.428Z,82.77
2022-08-25T05:56:38.378Z,80.97
2022-08-25T05:59:09.460Z,80.74
2022-08-25T06:01:56.747Z,81.69
2022-08-25T06:04:24.856Z,80.67
2022-08-25T06:06:54.913Z,80.93
2022-08-25T06:09:24.077Z,80.50
2022-08-25T06:11:54.886Z,81.82
2022-08-25T06:14:23.973Z,82.61
2022-08-25T06:16:53.977Z,81.43
2022-08-25T06:19:23.358Z,80.79
2022-08-25T06:21:55.314Z,80.25
2022-08-25T06:24:24.274Z,80.27
2022-08-25T06:26:52.245Z,78.87
2022-08-25T06:29:20.881Z,79.42
2022-08-25T06:31:49.918Z,79.14
2022-08-25T06:34:20.434Z,79.85
2022-08-25T06:36:52.266Z,78.21
2022-08-25T06:39:20.370Z,77.86
2022-08-25T06:41:52.431Z,78.42
2022-08-25T06:44:20.501Z,79.58
2022-08-25T06:46:48.690Z,78.92
2022-08-25T06:49:17.083Z,78.48
2022-08-25T06:51:46.490Z,77.39
2022-08-25T06:54:14.843Z,76.86
2022-08-25T06:56:43.378Z,75.49
2022-08-25T06:59:12.573Z,74.50
2022-08-25T07:01:41.010Z,74.19
2022-08-25T07:04:13.117Z,73.89
2022-08-25T07:06:42.441Z,72.88
2022-08-25T07:09:13.655Z,71.70
2022-08-25T07:11:42.763Z,72.91
2022-08-25T07:14:12.172Z,73.13
2022-08-25T07:16:40.966Z,72.49
2022-08-25T07:19:10.449Z,72.17
2022-08-25T07:21:45.837Z,72.95
2022-08-25T07:24:16.413Z,73.05
2022-08-25T07:26:46.831Z,70.87
2022-08-25T07:29:20.400Z,72.62
2022-08-25T07:32:00.663Z,70.79
2022-08-25T07:34:46.012Z,73.20
2022-08-25T07:37:47.200Z,70.23
2022-08-25T07:40:13.649Z,71.51
2022-08-25T07:42:42.853Z,70.20
2022-08-25T07:45:12.753Z,68.77
2022-08-25T07:47:41.076Z,70.06
2022-08-25T07:50:12.467Z,69.67
2022-08-25T07:52:41.038Z,69.34
2022-08-25T07:55:12.075Z,68.96
2022-08-25T07:57:48.968Z,68.95
2022-08-25T08:00:22.791Z,68.65
2022-08-25T08:02:52.741Z,67.53
2022-08-25T08:05:21.605Z,68.67
2022-08-25T08:07:52.093Z,69.23
2022-08-25T08:10:53.430Z,67.75
2022-08-25T08:13:16.482Z,68.88
2022-08-25T08:15:47.281Z,67.81
2022-08-25T08:18:15.881Z,68.70
2022-08-25T08:20:45.620Z,69.56
2022-08-25T08:23:13.693Z,68.70
2022-08-25T08:25:43.368Z,67.09
2022-08-25T08:28:11.416Z,68.32
2022-08-25T08:30:39.515Z,67.75
2022-08-25T08:33:20.113Z,68.05
2022-08-25T08:35:48.139Z,67.96
2022-08-25T08:38:20.888Z,68.00
2022-08-25T08:41:27.577Z,67.24
2022-08-25T08:46:50.636Z,66.16
2022-08-25T08:49:26.830Z,64.86
2022-08-25T08:52:02.734Z,64.49
2022-08-25T08:54:34.968Z,64.71
2022-08-25T08:57:12.650Z,64.15
2022-08-25T08:59:48.702Z,64.11
2022-08-25T09:02:39.507Z,63.87
2022-08-25T09:05:15.194Z,63.96
2022-08-25T09:07:54.766Z,62.48
2022-08-25T09:10:25.638Z,61.17
2022-08-25T09:13:05.899Z,62.48
2022-08-25T09:16:04.353Z,63.16
2022-08-25T09:18:51.002Z,61.06
2022-08-25T09:21:32.183Z,59.80
2022-08-25T09:24:15.691Z,61.20
2022-08-25T09:26:51.691Z,60.37
2022-08-25T09:29:26.169Z,61.58
2022-08-25T09:31:59.860Z,60.13
2022-08-25T09:34:33.643Z,59.78
2022-08-25T09:37:03.002Z,60.46
2022-08-25T09:39:31.068Z,60.44
2022-08-25T09:42:00.722Z,59.96
2022-08-25T09:44:33.620Z,59.30
2022-08-25T09:47:05.095Z,57.87
2022-08-25T09:49:37.582Z,59.46
2022-08-25T09:52:25.235Z,59.67
2022-08-25T09:54:55.149Z,58.57
2022-08-25T09:57:35.685Z,57.98
2022-08-25T10:00:18.409Z,57.49
2022-08-25T10:03:05.713Z,59.52
2022-08-25T10:05:36.627Z,59.73
2022-08-25T10:08:11.663Z,59.20
2022-08-25T10:10:47.292Z,56.79
2022-08-25T10:13:22.648Z,57.34
2022-08-25T10:16:20.190Z,56.19
2022-08-25T10:19:12.674Z,56.75
2022-08-25T10:21:42.650Z,56.13
2022-08-25T10:24:13.591Z,57.02
2022-08-25T10:26:49.336Z,57.03
2022-08-25T10:29:32.627Z,57.06
2022-08-25T10:32:11.518Z,57.79
2022-08-25T10:34:51.643Z,59.22
2022-08-25T10:37:24.823Z,57.37
2022-08-25T10:40:01.942Z,56.95
2022-08-25T10:42:37.773Z,56.36
2022-08-25T10:45:38.030Z,55.94
2022-08-25T10:48:26.614Z,55.60
2022-08-25T10:51:00.930Z,56.59
2022-08-25T10:53:35.682Z,57.27
2022-08-25T10:56:09.063Z,55.64
2022-08-25T10:59:04.322Z,55.31
2022-08-25T11:01:45.294Z,54.60
2022-08-25T11:04:21.645Z,54.85
2022-08-25T11:06:59.200Z,54.89
2022-08-25T11:09:31.983Z,55.09
2022-08-25T11:12:09.982Z,55.62
2022-08-25T11:14:41.544Z,55.58
2022-08-25T11:17:15.608Z,54.17
2022-08-25T11:19:50.134Z,54.70
2022-08-25T11:22:24.167Z,53.20
2022-08-25T11:25:04.484Z,50.31
2022-08-25T11:27:39.643Z,50.77
2022-08-25T11:30:11.395Z,50.30
2022-08-25T11:32:41.051Z,50.62
2022-08-25T11:35:14.709Z,49.10
2022-08-25T11:37:54.576Z,48.72
2022-08-25T11:40:39.206Z,49.53
2022-08-25T11:43:25.993Z,50.04
2022-08-25T11:46:04.339Z,49.16
2022-08-25T11:48:55.006Z,46.51
2022-08-25T11:51:36.490Z,49.16
2022-08-25T11:54:26.506Z,47.97
2022-08-25T11:57:00.074Z,47.18
2022-08-25T12:00:05.508Z,46.33
2022-08-25T12:02:37.973Z,46.67
2022-08-25T12:05:08.736Z,47.56
2022-08-25T12:08:19.678Z,47.64
2022-08-25T12:11:11.085Z,47.79
2022-08-25T12:13:48.536Z,47.41
2022-08-25T12:16:40.319Z,47.22
2022-08-25T12:19:30.498Z,45.94
2022-08-25T12:22:37.985Z,45.20
2022-08-25T12:25:14.864Z,45.48
2022-08-25T12:27:49.897Z,46.53
2022-08-25T12:30:22.829Z,44.81
2022-08-25T12:33:06.806Z,44.00
2022-08-25T12:35:41.063Z,43.27
2022-08-25T12:38:13.801Z,43.85
2022-08-25T12:41:02.526Z,44.68
2022-08-25T12:43:37.823Z,43.28
2022-08-25T12:46:35.782Z,44.58
2022-08-25T12:49:06.448Z,44.35
2022-08-25T12:51:57.424Z,44.63
2022-08-25T12:54:47.494Z,46.18
2022-08-25T12:57:33.768Z,46.27
2022-08-25T13:00:16.038Z,48.65
2022-08-25T13:03:22.425Z,48.41
2022-08-25T13:06:15.187Z,47.05
2022-08-25T13:09:18.727Z,45.68
2022-08-25T13:11:54.664Z,45.78
2022-08-25T13:14:37.729Z,45.49
2022-08-25T13:17:06.833Z,44.97
2022-08-25T13:19:38.671Z,45.21
2022-08-25T13:22:16.579Z,45.00
2022-08-25T13:24:50.419Z,42.97
2022-08-25T13:27:27.824Z,42.17
2022-08-25T13:30:03.841Z,42.93
2022-08-25T13:32:35.651Z,42.84
2022-08-25T13:35:17.802Z,43.52
2022-08-25T13:37:48.813Z,44.87
2022-08-25T13:40:26.143Z,43.90
2022-08-25T13:43:01.240Z,44.37
2022-08-25T13:45:40.896Z,43.71
2022-08-25T13:48:22.462Z,43.90
2022-08-25T13:50:52.906Z,44.11
2022-08-25T13:53:25.204Z,44.10
2022-08-25T13:55:57.147Z,43.57
2022-08-25T13:58:39.365Z,41.61
2022-08-25T14:01:22.805Z,42.42
2022-08-25T14:04:29.595Z,43.05
2022-08-25T14:07:19.653Z,41.93
2022-08-25T14:09:51.632Z,40.51
2022-08-25T14:12:33.725Z,41.13
2022-08-25T14:15:05.624Z,41.54
2022-08-25T14:17:40.048Z,40.95
2022-08-25T14:20:18.176Z,40.53
2022-08-25T14:22:46.536Z,40.70
2022-08-25T14:25:14.464Z,39.89
2022-08-25T14:28:06.517Z,41.06
2022-08-25T14:30:35.853Z,40.37
2022-08-25T14:33:06.868Z,40.11
2022-08-25T14:35:35.381Z,40.55
2022-08-25T14:38:08.493Z,40.85
2022-08-25T14:40:37.773Z,40.91
2022-08-25T14:43:06.226Z,40.03
2022-08-25T14:45:40.478Z,39.92
2022-08-25T14:48:14.215Z,40.14
2022-08-25T14:50:42.525Z,40.34
2022-08-25T14:53:12.624Z,39.84
2022-08-25T14:55:40.764Z,39.79
2022-08-25T14:58:09.535Z,40.12
2022-08-25T15:00:41.417Z,40.32
2022-08-25T15:03:13.276Z,40.47
2022-08-25T15:05:41.790Z,39.12
2022-08-25T15:08:32.941Z,40.31
2022-08-25T15:11:01.710Z,41.48
2022-08-25T15:13:37.039Z,41.30
2022-08-25T15:16:05.755Z,40.08
2022-08-25T15:18:35.627Z,40.54
2022-08-25T15:21:04.482Z,40.84
2022-08-25T15:23:32.575Z,41.30
2022-08-25T15:26:03.698Z,41.43
2022-08-25T15:28:33.302Z,42.01
2022-08-25T15:31:01.256Z,41.51
2022-08-25T15:33:29.205Z,41.97
2022-08-25T15:35:58.605Z,42.56
2022-08-25T15:38:26.594Z,42.17
2022-08-25T15:40:54.734Z,42.22
2022-08-25T15:43:23.044Z,42.94
2022-08-25T15:45:51.629Z,42.83
2022-08-25T15:48:19.637Z,43.50
2022-08-25T15:50:48.911Z,42.77
2022-08-25T15:53:18.360Z,42.76
2022-08-25T15:55:46.495Z,43.66
2022-08-25T15:58:14.950Z,43.52
2022-08-25T16:00:45.293Z,43.83
2022-08-25T16:03:24.561Z,44.56
2022-08-25T16:05:52.604Z,44.27
2022-08-25T16:08:21.841Z,44.06
2022-08-25T16:10:50.102Z,44.03
2022-08-25T16:13:18.576Z,44.82
2022-08-25T16:15:53.154Z,43.62
2022-08-25T16:18:23.295Z,44.28
2022-08-25T16:20:51.636Z,44.72
2022-08-25T16:23:21.998Z,43.66
2022-08-25T16:25:51.757Z,44.17
2022-08-25T16:28:20.732Z,44.08
2022-08-25T16:30:53.140Z,44.32
2022-08-25T16:33:21.323Z,43.09
2022-08-25T16:35:49.631Z,43.24
2022-08-25T16:38:17.975Z,43.19
2022-08-25T16:40:47.821Z,42.66
2022-08-25T16:43:17.669Z,42.75
2022-08-25T16:45:45.508Z,42.58
2022-08-25T16:48:14.446Z,43.39
2022-08-25T16:50:42.799Z,43.33
2022-08-25T16:53:30.920Z,43.47
2022-08-25T16:56:05.065Z,43.96
2022-08-25T16:58:35.649Z,43.90
2022-08-25T17:01:05.353Z,44.02
2022-08-25T17:03:35.107Z,44.54
2022-08-25T17:06:03.908Z,44.60
2022-08-25T17:08:33.331Z,43.96
2022-08-25T17:11:10.250Z,44.24
2022-08-25T17:13:39.860Z,43.98
2022-08-25T17:16:13.410Z,43.97
2022-08-25T17:18:43.279Z,44.90
2022-08-25T17:21:24.413Z,43.78
2022-08-25T17:23:53.231Z,44.46
2022-08-25T17:26:27.751Z,44.48
2022-08-25T17:28:57.664Z,44.67
2022-08-25T17:31:28.264Z,45.09
2022-08-25T17:33:57.968Z,45.03
2022-08-25T17:36:26.986Z,45.26
2022-08-25T17:38:56.799Z,45.96
2022-08-25T17:41:26.616Z,45.48
2022-08-25T17:43:54.664Z,45.82
2022-08-25T17:46:22.950Z,46.38
2022-08-25T17:48:52.751Z,46.26
2022-08-25T17:51:21.499Z,46.53
2022-08-25T17:53:50.637Z,47.09
2022-08-25T17:56:20.929Z,47.79
2022-08-25T17:58:52.407Z,48.38
2022-08-25T18:01:23.462Z,48.50
2022-08-25T18:03:52.677Z,49.01
2022-08-25T18:06:21.951Z,49.02
2022-08-25T18:08:54.487Z,50.06
2022-08-25T18:11:26.931Z,51.25
2022-08-25T18:13:56.973Z,52.88
2022-08-25T18:16:26.031Z,54.60
2022-08-25T18:18:55.227Z,55.64
2022-08-25T18:21:30.589Z,56.37
2022-08-25T18:23:59.490Z,56.89
2022-08-25T18:26:28.188Z,57.82
2022-08-25T18:28:57.583Z,57.96
2022-08-25T18:31:25.945Z,57.11
2022-08-25T18:33:54.051Z,56.93
2022-08-25T18:36:22.393Z,58.15
2022-08-25T18:39:08.123Z,59.05
2022-08-25T18:41:38.803Z,59.17
2022-08-25T18:44:10.673Z,59.30
2022-08-25T18:46:39.777Z,58.80
2022-08-25T18:49:08.559Z,59.45
2022-08-25T18:51:37.100Z,59.45
2022-08-25T18:54:05.806Z,59.89
2022-08-25T18:56:35.623Z,60.33
2022-08-25T18:59:04.442Z,60.50
2022-08-25T19:01:34.115Z,60.23
2022-08-25T19:04:02.459Z,60.50
2022-08-25T19:06:31.522Z,60.58
2022-08-25T19:09:00.144Z,61.79
2022-08-25T19:11:28.566Z,61.75
2022-08-25T19:13:57.968Z,62.66
2022-08-25T19:16:35.658Z,62.38
2022-08-25T19:19:06.443Z,63.40
2022-08-25T19:21:34.867Z,63.62
2022-08-25T19:24:03.377Z,63.78
2022-08-25T19:26:33.407Z,64.50
2022-08-25T19:29:02.125Z,65.00
2022-08-25T19:31:33.269Z,65.32
2022-08-25T19:34:03.709Z,66.29
2022-08-25T19:36:32.275Z,66.56
2022-08-25T19:39:01.961Z,67.24
2022-08-25T19:41:31.429Z,67.06
2022-08-25T19:43:59.812Z,67.48
2022-08-25T19:46:32.613Z,67.16
2022-08-25T19:49:08.072Z,67.15
2022-08-25T19:51:38.159Z,67.56
2022-08-25T19:54:09.028Z,67.67
2022-08-25T19:56:43.518Z,67.73
2022-08-25T19:59:22.358Z,68.13
2022-08-25T20:01:50.983Z,68.77
2022-08-25T20:04:21.607Z,68.83
2022-08-25T20:06:52.851Z,69.16
2022-08-25T20:09:39.415Z,69.37
2022-08-25T20:12:11.870Z,69.81
2022-08-25T20:14:40.293Z,70.22
2022-08-25T20:17:14.481Z,70.54
2022-08-25T20:19:55.565Z,70.87
2022-08-25T20:22:26.238Z,71.35
2022-08-25T20:24:58.604Z,70.99
2022-08-25T20:27:31.912Z,71.44
2022-08-25T20:30:02.430Z,71.73
2022-08-25T20:32:32.621Z,72.53
2022-08-25T20:35:02.325Z,72.23
2022-08-25T20:37:31.418Z,72.25
2022-08-25T20:40:02.557Z,72.59
2022-08-25T20:42:30.809Z,72.24
2022-08-25T20:44:59.184Z,71.86
2022-08-25T20:47:27.409Z,72.17
2022-08-25T20:49:56.195Z,72.40
2022-08-25T20:52:26.193Z,72.56
2022-08-25T20:54:55.232Z,73.00
2022-08-25T20:57:25.918Z,73.22
2022-08-25T20:59:54.954Z,73.74
2022-08-25T21:02:23.144Z,74.30
2022-08-25T21:04:51.822Z,74.25
2022-08-25T21:07:21.311Z,74.98
2022-08-25T21:09:54.117Z,75.19
2022-08-25T21:12:22.566Z,75.97
2022-08-25T21:14:51.883Z,76.60
2022-08-25T21:17:21.082Z,76.69
2022-08-25T21:19:50.042Z,77.08
2022-08-25T21:22:18.525Z,77.24
2022-08-25T21:24:47.421Z,77.24
2022-08-25T21:27:16.921Z,77.17
2022-08-25T21:29:54.561Z,77.62
2022-08-25T21:32:24.135Z,77.28
2022-08-25T21:34:53.989Z,77.33
2022-08-25T21:37:22.260Z,77.12
2022-08-25T21:39:50.545Z,77.57
2022-08-25T21:42:21.289Z,78.66
2022-08-25T21:44:50.529Z,78.79
2022-08-25T21:47:21.300Z,79.27
2022-08-25T21:49:50.520Z,79.20
2022-08-25T21:52:19.138Z,79.86
2022-08-25T21:54:47.878Z,79.80
2022-08-25T21:57:19.132Z,80.19
2022-08-25T21:59:52.986Z,80.35
2022-08-25T22:02:23.211Z,81.72
2022-08-25T22:04:53.654Z,81.31
2022-08-25T22:07:24.518Z,81.86
2022-08-25T22:09:53.360Z,81.95
2022-08-25T22:12:21.483Z,81.75
2022-08-25T22:14:49.746Z,81.41
2022-08-25T22:17:21.050Z,81.68
2022-08-25T22:19:53.840Z,82.16
2022-08-25T22:22:22.496Z,82.30
2022-08-25T22:24:50.649Z,82.85
2022-08-25T22:27:18.963Z,82.66
2022-08-25T22:29:51.745Z,82.81
2022-08-25T22:32:21.636Z,82.93
2022-08-25T22:34:50.063Z,83.32
2022-08-25T22:37:18.152Z,83.57
2022-08-25T22:39:47.210Z,83.72
2022-08-25T22:42:18.471Z,83.92
2022-08-25T22:44:46.467Z,84.45
2022-08-25T22:47:14.501Z,84.62
2022-08-25T22:49:44.262Z,84.57
2022-08-25T22:52:13.388Z,84.94
2022-08-25T22:54:42.509Z,85.33
2022-08-25T22:57:11.883Z,85.31
2022-08-25T22:59:40.722Z,85.07
2022-08-25T23:02:09.549Z,85.76
2022-08-25T23:04:41.102Z,85.65
2022-08-25T23:07:11.969Z,86.24
2022-08-25T23:09:40.043Z,86.70
2022-08-25T23:12:08.739Z,86.98
2022-08-25T23:14:37.315Z,86.88
2022-08-25T23:17:07.570Z,87.42
2022-08-25T23:19:36.241Z,87.08
2022-08-25T23:22:09.545Z,88.24
2022-08-25T23:24:42.607Z,89.05
2022-08-25T23:27:13.594Z,89.14
2022-08-25T23:29:45.144Z,88.61
2022-08-25T23:32:14.872Z,89.94
2022-08-25T23:34:46.510Z,89.93
2022-08-25T23:37:18.660Z,89.89
2022-08-25T23:39:50.036Z,89.45
2022-08-25T23:42:19.803Z,90.97
2022-08-25T23:44:48.144Z,91.57
2022-08-25T23:47:16.227Z,91.48
2022-08-25T23:49:44.389Z,90.29
2022-08-25T23:52:12.305Z,90.06
2022-08-25T23:54:40.578Z,90.50
2022-08-25T23:57:10.275Z,90.92
2022-08-25T23:59:38.544Z,91.45
